createdAt,value
2018-02-09T00:01:06.394Z,85.47
2018-02-09T00:03:32.155Z,97.00
2018-02-09T00:05:57.903Z,95.93
2018-02-09T00:08:23.670Z,101.97
2018-02-09T00:10:49.410Z,103.70
2018-02-09T00:13:15.170Z,105.80
2018-02-09T00:15:40.923Z,110.63
2018-02-09T00:18:07.239Z,108.60
2018-02-09T00:20:33.035Z,109.05
2018-02-09T00:22:58.788Z,92.07
2018-02-09T00:25:24.542Z,95.20
2018-02-09T00:27:50.304Z,94.97
2018-02-09T00:30:16.042Z,95.83
2018-02-09T00:32:41.814Z,103.90
2018-02-09T00:35:07.559Z,114.77
2018-02-09T00:37:33.339Z,121.83
2018-02-09T00:39:59.083Z,106.47
2018-02-09T00:42:24.833Z,99.47
2018-02-09T00:44:50.588Z,93.53
2018-02-09T00:47:16.366Z,85.43
2018-02-09T00:49:42.114Z,91.17
2018-02-09T00:52:07.859Z,80.57
2018-02-09T00:54:33.628Z,86.17
2018-02-09T00:56:59.374Z,86.77
2018-02-09T00:59:25.131Z,87.27
2018-02-09T01:01:50.878Z,88.00
2018-02-09T01:04:16.659Z,80.47
2018-02-09T01:06:42.410Z,86.67
2018-02-09T01:09:08.184Z,93.67
2018-02-09T01:11:33.938Z,88.90
2018-02-09T01:13:59.715Z,89.77
2018-02-09T01:16:25.606Z,89.13
2018-02-09T01:18:51.369Z,90.23
2018-02-09T01:21:17.140Z,90.77
2018-02-09T01:23:42.894Z,88.57
2018-02-09T01:26:08.646Z,95.53
2018-02-09T01:28:34.414Z,101.93
2018-02-09T01:31:00.176Z,101.70
2018-02-09T01:33:25.927Z,104.00
2018-02-09T01:35:51.678Z,94.47
2018-02-09T01:38:17.442Z,96.30
2018-02-09T01:40:43.202Z,94.90
2018-02-09T01:43:08.963Z,93.67
2018-02-09T01:45:34.722Z,98.13
2018-02-09T01:48:00.467Z,102.07
2018-02-09T01:50:26.229Z,98.80
2018-02-09T01:52:51.994Z,107.90
2018-02-09T01:55:17.756Z,100.83
2018-02-09T01:57:43.497Z,108.57
2018-02-09T02:00:09.274Z,118.77
2018-02-09T02:02:35.027Z,123.30
2018-02-09T02:05:00.786Z,111.63
2018-02-09T02:07:26.547Z,112.83
2018-02-09T02:09:52.320Z,111.50
2018-02-09T02:12:18.088Z,120.07
2018-02-09T02:14:43.867Z,123.00
2018-02-09T02:17:09.611Z,116.47
2018-02-09T02:19:35.361Z,119.17
2018-02-09T02:22:01.114Z,123.87
2018-02-09T02:24:26.867Z,125.77
2018-02-09T02:26:52.622Z,114.67
2018-02-09T02:29:18.388Z,109.40
2018-02-09T02:31:44.150Z,104.00
2018-02-09T02:34:09.903Z,105.23
2018-02-09T02:36:35.678Z,99.43
2018-02-09T02:39:08.443Z,97.40
2018-02-09T02:41:34.199Z,99.30
2018-02-09T02:43:59.956Z,96.90
2018-02-09T02:46:25.720Z,102.57
2018-02-09T02:48:51.462Z,94.97
2018-02-09T02:51:17.226Z,100.07
2018-02-09T02:53:42.983Z,107.67
2018-02-09T02:56:08.753Z,114.50
2018-02-09T02:58:34.497Z,115.70
2018-02-09T03:01:00.262Z,112.13
2018-02-09T03:03:26.023Z,116.60
2018-02-09T03:05:51.799Z,115.77
2018-02-09T03:08:17.550Z,114.60
2018-02-09T03:10:43.318Z,113.20
2018-02-09T03:13:09.071Z,109.37
2018-02-09T03:15:34.821Z,112.50
2018-02-09T03:18:00.583Z,104.50
2018-02-09T03:20:26.332Z,99.73
2018-02-09T03:22:52.098Z,107.23
2018-02-09T03:25:17.854Z,107.60
2018-02-09T03:27:43.604Z,110.83
2018-02-09T03:30:09.351Z,99.87
2018-02-09T03:32:35.121Z,102.77
2018-02-09T03:35:00.865Z,96.70
2018-02-09T03:37:26.656Z,102.73
2018-02-09T03:39:52.410Z,101.47
2018-02-09T03:42:18.173Z,99.97
2018-02-09T03:44:43.922Z,96.10
2018-02-09T03:47:09.690Z,102.80
2018-02-09T03:49:35.452Z,103.37
2018-02-09T03:52:01.218Z,100.57
2018-02-09T03:54:26.982Z,106.17
2018-02-09T03:56:52.722Z,107.60
2018-02-09T03:59:18.487Z,110.53
2018-02-09T04:01:44.248Z,115.87
2018-02-09T04:04:10.012Z,110.90
2018-02-09T04:06:35.759Z,119.80
2018-02-09T04:09:01.520Z,123.10
2018-02-09T04:11:27.278Z,120.50
2018-02-09T04:13:53.047Z,128.53
2018-02-09T04:16:18.793Z,130.17
2018-02-09T04:18:44.555Z,126.43
2018-02-09T04:21:10.315Z,131.17
2018-02-09T04:23:36.095Z,124.37
2018-02-09T04:26:01.846Z,129.50
2018-02-09T04:28:27.611Z,123.50
2018-02-09T04:30:53.371Z,127.30
2018-02-09T04:33:19.136Z,126.97
2018-02-09T04:35:44.887Z,121.33
2018-02-09T04:38:10.659Z,122.27
2018-02-09T04:40:36.420Z,113.67
2018-02-09T04:43:02.186Z,128.90
2018-02-09T04:45:27.983Z,123.63
2018-02-09T04:47:53.723Z,135.53
2018-02-09T04:50:19.495Z,129.17
2018-02-09T04:52:45.246Z,122.70
2018-02-09T04:55:11.070Z,128.80
2018-02-09T04:57:36.794Z,124.20
2018-02-09T05:00:02.586Z,125.50
2018-02-09T05:02:28.338Z,119.20
2018-02-09T05:04:54.108Z,111.53
2018-02-09T05:07:19.860Z,123.63
2018-02-09T05:09:45.638Z,127.07
2018-02-09T05:12:11.400Z,124.40
2018-02-09T05:14:37.162Z,118.13
2018-02-09T05:17:02.923Z,110.40
2018-02-09T05:19:28.683Z,103.27
2018-02-09T05:21:54.472Z,104.33
2018-02-09T05:24:20.217Z,104.70
2018-02-09T05:26:45.967Z,114.90
2018-02-09T05:29:11.730Z,101.23
2018-02-09T05:31:37.475Z,105.73
2018-02-09T05:34:03.247Z,103.13
2018-02-09T05:36:29.021Z,96.33
2018-02-09T05:38:54.761Z,96.70
2018-02-09T05:41:20.575Z,103.53
2018-02-09T05:43:46.288Z,99.77
2018-02-09T05:46:12.039Z,93.63
2018-02-09T05:48:37.782Z,92.57
2018-02-09T05:51:03.546Z,96.20
2018-02-09T05:53:29.285Z,104.53
2018-02-09T05:55:55.055Z,101.40
2018-02-09T05:58:20.805Z,101.40
2018-02-09T06:00:46.573Z,106.40
2018-02-09T06:03:12.320Z,95.77
2018-02-09T06:05:38.079Z,100.03
2018-02-09T06:08:03.818Z,94.87
2018-02-09T06:10:29.582Z,90.47
2018-02-09T06:12:55.335Z,97.30
2018-02-09T06:15:21.110Z,103.00
2018-02-09T06:17:46.865Z,101.17
2018-02-09T06:20:12.614Z,98.67
2018-02-09T06:22:38.370Z,99.07
2018-02-09T06:25:04.118Z,97.90
2018-02-09T06:27:29.881Z,100.10
2018-02-09T06:29:55.631Z,97.30
2018-02-09T06:32:21.404Z,94.63
2018-02-09T06:34:47.156Z,106.70
2018-02-09T06:37:12.930Z,106.93
2018-02-09T06:39:38.710Z,111.47
2018-02-09T06:42:04.502Z,110.53
2018-02-09T06:44:30.249Z,100.97
2018-02-09T06:46:56.002Z,96.40
2018-02-09T06:49:21.767Z,104.33
2018-02-09T06:51:47.507Z,99.97
2018-02-09T06:54:13.277Z,96.40
2018-02-09T06:56:39.035Z,95.47
2018-02-09T06:59:04.790Z,103.40
2018-02-09T07:01:30.558Z,94.13
2018-02-09T07:03:56.339Z,98.03
2018-02-09T07:06:22.097Z,95.90
2018-02-09T07:08:47.886Z,93.30
2018-02-09T07:11:13.639Z,92.67
2018-02-09T07:13:39.386Z,93.27
2018-02-09T07:16:05.173Z,99.23
2018-02-09T07:18:30.932Z,91.93
2018-02-09T07:20:56.702Z,91.17
2018-02-09T07:23:22.454Z,92.77
2018-02-09T07:25:48.230Z,91.30
2018-02-09T07:28:13.992Z,98.60
2018-02-09T07:30:39.747Z,92.27
2018-02-09T07:33:05.495Z,91.17
2018-02-09T07:35:31.266Z,97.10
2018-02-09T07:37:57.082Z,98.57
2018-02-09T07:40:22.820Z,94.87
2018-02-09T07:42:48.568Z,97.43
2018-02-09T07:45:14.330Z,94.20
2018-02-09T07:47:40.077Z,97.93
2018-02-09T07:50:05.847Z,88.97
2018-02-09T07:52:31.588Z,99.13
2018-02-09T07:54:57.351Z,92.90
2018-02-09T07:57:23.110Z,87.13
2018-02-09T07:59:48.882Z,95.70
2018-02-09T08:02:14.634Z,94.87
2018-02-09T08:04:40.383Z,90.60
2018-02-09T08:07:06.142Z,99.43
2018-02-09T08:09:31.905Z,91.17
2018-02-09T08:11:57.670Z,92.37
2018-02-09T08:14:23.418Z,93.13
2018-02-09T08:16:49.175Z,99.27
2018-02-09T08:19:14.922Z,91.13
2018-02-09T08:21:40.692Z,90.17
2018-02-09T08:24:06.438Z,93.90
2018-02-09T08:26:32.195Z,93.17
2018-02-09T08:28:57.937Z,91.07
2018-02-09T08:31:23.707Z,88.63
2018-02-09T08:33:49.454Z,90.40
2018-02-09T08:36:15.210Z,93.90
2018-02-09T08:38:40.951Z,93.77
2018-02-09T08:41:06.720Z,96.10
2018-02-09T08:43:32.472Z,90.20
2018-02-09T08:45:58.228Z,95.73
2018-02-09T08:48:23.962Z,91.10
2018-02-09T08:50:49.729Z,92.57
2018-02-09T08:53:15.489Z,88.20
2018-02-09T08:55:41.243Z,89.53
2018-02-09T08:58:07.014Z,91.37
2018-02-09T09:00:32.755Z,92.70
2018-02-09T09:02:58.542Z,89.50
2018-02-09T09:05:24.295Z,85.47
2018-02-09T09:07:50.078Z,90.93
2018-02-09T09:10:15.842Z,83.07
2018-02-09T09:12:41.628Z,96.13
2018-02-09T09:15:07.405Z,90.93
2018-02-09T09:17:33.164Z,87.00
2018-02-09T09:19:58.957Z,90.43
2018-02-09T09:22:24.705Z,89.23
2018-02-09T09:24:50.473Z,88.60
2018-02-09T09:27:16.210Z,83.90
2018-02-09T09:29:41.969Z,85.90
2018-02-09T09:32:07.737Z,90.90
2018-02-09T09:34:33.503Z,91.87
2018-02-09T09:36:59.244Z,89.23
2018-02-09T09:39:25.052Z,90.03
2018-02-09T09:41:50.776Z,85.93
2018-02-09T09:44:16.534Z,86.03
2018-02-09T09:46:42.278Z,90.50
2018-02-09T09:49:08.027Z,86.90
2018-02-09T09:51:33.762Z,86.23
2018-02-09T09:53:59.742Z,82.17
2018-02-09T09:56:25.487Z,86.07
2018-02-09T09:58:51.230Z,87.67
2018-02-09T10:01:20.809Z,82.93
2018-02-09T10:03:46.558Z,88.57
2018-02-09T10:06:12.314Z,82.13
2018-02-09T10:08:38.074Z,85.63
2018-02-09T10:11:03.830Z,83.60
2018-02-09T10:13:29.595Z,80.83
2018-02-09T10:15:55.352Z,84.03
2018-02-09T10:18:21.114Z,82.10
2018-02-09T10:20:46.859Z,80.63
2018-02-09T10:23:12.618Z,82.70
2018-02-09T10:25:38.384Z,84.20
2018-02-09T10:28:04.155Z,77.40
2018-02-09T10:30:29.903Z,83.90
2018-02-09T10:32:55.670Z,85.57
2018-02-09T10:35:21.419Z,77.57
2018-02-09T10:37:47.184Z,81.77
2018-02-09T10:40:12.925Z,79.93
2018-02-09T10:42:38.677Z,84.47
2018-02-09T10:45:04.436Z,78.20
2018-02-09T10:47:30.190Z,79.20
2018-02-09T10:49:55.938Z,75.60
2018-02-09T10:52:21.690Z,75.53
2018-02-09T10:54:47.446Z,76.47
2018-02-09T10:57:13.199Z,77.63
2018-02-09T10:59:38.958Z,77.00
2018-02-09T11:02:04.702Z,75.23
2018-02-09T11:04:30.462Z,77.10
2018-02-09T11:06:56.229Z,76.67
2018-02-09T11:09:28.150Z,78.90
2018-02-09T11:11:57.945Z,81.72
2018-02-09T11:14:23.742Z,79.97
2018-02-09T11:16:49.510Z,79.93
2018-02-09T11:19:15.266Z,71.60
2018-02-09T11:21:41.026Z,70.80
2018-02-09T11:24:06.790Z,76.43
2018-02-09T11:26:32.560Z,71.60
2018-02-09T11:28:58.338Z,69.33
2018-02-09T11:31:24.103Z,72.00
2018-02-09T11:33:49.866Z,72.57
2018-02-09T11:36:15.650Z,71.37
2018-02-09T11:38:41.409Z,69.27
2018-02-09T11:41:07.172Z,70.83
2018-02-09T11:43:32.943Z,73.33
2018-02-09T11:45:58.708Z,72.60
2018-02-09T11:48:24.463Z,74.77
2018-02-09T11:50:50.232Z,72.27
2018-02-09T11:53:15.982Z,69.37
2018-02-09T11:55:41.743Z,74.10
2018-02-09T11:58:07.511Z,73.80
2018-02-09T12:00:33.279Z,68.20
2018-02-09T12:02:59.038Z,70.27
2018-02-09T12:05:24.807Z,70.73
2018-02-09T12:07:50.558Z,67.13
2018-02-09T12:10:16.339Z,75.50
2018-02-09T12:12:42.088Z,74.63
2018-02-09T12:15:07.857Z,76.60
2018-02-09T12:17:33.636Z,68.67
2018-02-09T12:19:59.420Z,73.07
2018-02-09T12:22:25.165Z,75.83
2018-02-09T12:24:50.927Z,70.33
2018-02-09T12:27:16.683Z,70.47
2018-02-09T12:29:42.434Z,70.83
2018-02-09T12:32:08.177Z,73.17
2018-02-09T12:34:33.935Z,73.87
2018-02-09T12:36:59.698Z,71.83
2018-02-09T12:39:25.459Z,71.80
2018-02-09T12:41:51.235Z,72.87
2018-02-09T12:44:16.998Z,70.30
2018-02-09T12:46:42.774Z,72.13
2018-02-09T12:49:08.534Z,69.60
2018-02-09T12:51:34.336Z,73.43
2018-02-09T12:54:00.099Z,71.47
2018-02-09T12:56:25.858Z,71.43
2018-02-09T12:58:51.636Z,67.47
2018-02-09T13:01:17.370Z,74.70
2018-02-09T13:03:43.182Z,69.37
2018-02-09T13:06:08.974Z,67.53
2018-02-09T13:08:34.723Z,72.80
2018-02-09T13:11:00.459Z,69.63
2018-02-09T13:13:26.218Z,70.40
2018-02-09T13:15:51.950Z,70.17
2018-02-09T13:18:30.036Z,69.43
2018-02-09T13:20:55.778Z,67.75
2018-02-09T13:23:33.989Z,69.00
2018-02-09T13:25:59.733Z,68.62
2018-02-09T13:28:37.847Z,73.60
2018-02-09T13:31:03.599Z,70.90
2018-02-09T13:33:29.358Z,69.90
2018-02-09T13:35:55.098Z,69.93
2018-02-09T13:38:20.850Z,67.57
2018-02-09T13:40:46.602Z,66.60
2018-02-09T13:43:12.377Z,67.93
2018-02-09T13:45:38.137Z,66.83
2018-02-09T13:48:03.907Z,69.03
2018-02-09T13:50:29.662Z,70.13
2018-02-09T13:52:55.426Z,69.20
2018-02-09T13:55:21.242Z,70.87
2018-02-09T13:57:47.002Z,71.23
2018-02-09T14:00:13.562Z,67.03
2018-02-09T14:02:39.312Z,69.03
2018-02-09T14:05:05.066Z,71.50
2018-02-09T14:07:30.810Z,68.33
2018-02-09T14:09:56.568Z,69.73
2018-02-09T14:12:22.314Z,70.60
2018-02-09T14:14:48.075Z,70.80
2018-02-09T14:17:13.833Z,71.20
2018-02-09T14:19:39.581Z,71.10
2018-02-09T14:22:05.334Z,69.13
2018-02-09T14:24:31.098Z,73.07
2018-02-09T14:26:56.852Z,70.07
2018-02-09T14:29:22.602Z,76.60
2018-02-09T14:31:48.335Z,72.03
2018-02-09T14:34:14.082Z,71.80
2018-02-09T14:36:39.861Z,75.50
2018-02-09T14:39:05.625Z,75.93
2018-02-09T14:41:31.395Z,74.77
2018-02-09T14:43:57.256Z,74.33
2018-02-09T14:46:23.075Z,73.37
2018-02-09T14:48:48.909Z,75.73
2018-02-09T14:51:14.688Z,74.43
2018-02-09T14:53:40.559Z,77.67
2018-02-09T14:56:06.339Z,77.53
2018-02-09T14:58:32.148Z,76.63
2018-02-09T15:00:57.927Z,75.77
2018-02-09T15:03:23.704Z,75.37
2018-02-09T15:05:49.704Z,79.03
2018-02-09T15:08:15.455Z,74.90
2018-02-09T15:10:41.324Z,80.10
2018-02-09T15:13:07.333Z,78.23
2018-02-09T15:15:33.106Z,77.75
2018-02-09T15:17:58.981Z,81.87
2018-02-09T15:20:24.779Z,77.97
2018-02-09T15:22:50.745Z,80.47
2018-02-09T15:25:16.556Z,80.30
2018-02-09T15:27:42.378Z,78.80
2018-02-09T15:30:08.183Z,81.67
2018-02-09T15:32:34.055Z,80.83
2018-02-09T15:34:59.912Z,78.67
2018-02-09T15:37:25.700Z,91.63
2018-02-09T15:39:51.516Z,86.27
2018-02-09T15:42:17.320Z,84.77
2018-02-09T15:44:43.091Z,81.77
2018-02-09T15:47:08.855Z,82.43
2018-02-09T15:49:34.596Z,85.30
2018-02-09T15:52:00.389Z,83.97
2018-02-09T15:54:26.148Z,88.10
2018-02-09T15:56:51.894Z,88.93
2018-02-09T15:59:17.676Z,86.60
2018-02-09T16:01:43.447Z,91.63
2018-02-09T16:04:09.212Z,87.27
2018-02-09T16:06:34.976Z,94.23
2018-02-09T16:09:00.762Z,92.47
2018-02-09T16:11:26.518Z,90.67
2018-02-09T16:13:53.532Z,87.80
2018-02-09T16:16:19.291Z,83.32
2018-02-09T16:18:45.067Z,86.33
2018-02-09T16:21:10.822Z,94.37
2018-02-09T16:23:36.608Z,89.13
2018-02-09T16:26:02.377Z,88.23
2018-02-09T16:28:28.142Z,89.27
2018-02-09T16:30:53.897Z,95.97
2018-02-09T16:33:19.654Z,89.63
2018-02-09T16:35:45.427Z,95.27
2018-02-09T16:38:11.169Z,94.10
2018-02-09T16:40:36.943Z,91.67
2018-02-09T16:43:02.844Z,92.93
2018-02-09T16:45:28.755Z,94.03
2018-02-09T16:47:54.546Z,101.17
2018-02-09T16:50:20.334Z,102.03
2018-02-09T16:52:46.102Z,95.07
2018-02-09T16:55:11.910Z,88.90
2018-02-09T16:57:37.688Z,95.23
2018-02-09T17:00:03.512Z,94.47
2018-02-09T17:02:29.285Z,95.37
2018-02-09T17:04:55.058Z,96.13
2018-02-09T17:07:20.850Z,93.87
2018-02-09T17:09:46.630Z,95.33
2018-02-09T17:12:12.384Z,98.93
2018-02-09T17:14:38.127Z,96.50
2018-02-09T17:17:03.895Z,101.37
2018-02-09T17:19:29.643Z,96.80
2018-02-09T17:21:55.418Z,97.13
2018-02-09T17:24:21.182Z,92.50
2018-02-09T17:26:46.976Z,94.90
2018-02-09T17:29:12.774Z,99.33
2018-02-09T17:31:38.613Z,97.83
2018-02-09T17:34:04.378Z,96.87
2018-02-09T17:36:30.195Z,100.53
2018-02-09T17:38:56.006Z,100.43
2018-02-09T17:41:21.802Z,99.00
2018-02-09T17:43:47.562Z,99.97
2018-02-09T17:46:13.310Z,95.97
2018-02-09T17:48:39.094Z,94.50
2018-02-09T17:51:04.925Z,106.17
2018-02-09T17:53:30.773Z,100.37
2018-02-09T17:55:56.624Z,100.50
2018-02-09T17:58:22.366Z,101.83
2018-02-09T18:00:48.159Z,99.20
2018-02-09T18:03:13.961Z,104.17
2018-02-09T18:05:39.722Z,99.23
2018-02-09T18:08:05.495Z,100.33
2018-02-09T18:10:31.241Z,106.10
2018-02-09T18:12:57.012Z,102.50
2018-02-09T18:15:22.814Z,103.20
2018-02-09T18:17:48.627Z,98.47
2018-02-09T18:20:14.399Z,103.20
2018-02-09T18:22:40.214Z,98.33
2018-02-09T18:25:05.999Z,105.13
2018-02-09T18:27:31.766Z,104.03
2018-02-09T18:29:57.509Z,100.63
2018-02-09T18:32:23.288Z,101.53
2018-02-09T18:34:49.064Z,100.70
2018-02-09T18:37:14.818Z,100.73
2018-02-09T18:39:40.573Z,103.53
2018-02-09T18:42:06.401Z,108.00
2018-02-09T18:44:32.258Z,102.27
2018-02-09T18:46:58.038Z,105.50
2018-02-09T18:49:23.848Z,102.63
2018-02-09T18:51:49.634Z,106.60
2018-02-09T18:54:15.404Z,110.23
2018-02-09T18:56:41.171Z,107.80
2018-02-09T18:59:06.945Z,110.33
2018-02-09T19:01:32.722Z,110.70
2018-02-09T19:03:58.606Z,110.33
2018-02-09T19:06:24.420Z,112.40
2018-02-09T19:08:50.234Z,110.00
2018-02-09T19:11:16.022Z,113.93
2018-02-09T19:13:41.815Z,111.80
2018-02-09T19:16:07.591Z,117.60
2018-02-09T19:18:33.346Z,111.13
2018-02-09T19:20:59.102Z,112.37
2018-02-09T19:23:24.875Z,114.77
2018-02-09T19:25:50.650Z,117.80
2018-02-09T19:28:16.410Z,112.03
2018-02-09T19:30:42.190Z,123.47
2018-02-09T19:33:07.951Z,125.83
2018-02-09T19:35:33.710Z,121.73
2018-02-09T19:37:59.463Z,125.77
2018-02-09T19:40:25.231Z,125.40
2018-02-09T19:42:50.982Z,122.13
2018-02-09T19:45:16.774Z,130.53
2018-02-09T19:47:42.531Z,124.27
2018-02-09T19:50:08.310Z,131.67
2018-02-09T19:52:34.074Z,127.00
2018-02-09T19:54:59.838Z,120.80
2018-02-09T19:57:25.591Z,134.87
2018-02-09T19:59:51.342Z,130.33
2018-02-09T20:02:17.105Z,131.30
2018-02-09T20:04:42.855Z,126.93
2018-02-09T20:07:08.623Z,135.23
2018-02-09T20:09:34.379Z,136.83
2018-02-09T20:12:00.152Z,136.43
2018-02-09T20:14:25.903Z,131.83
2018-02-09T20:16:51.658Z,133.63
2018-02-09T20:19:17.417Z,130.47
2018-02-09T20:21:43.171Z,130.50
2018-02-09T20:24:08.930Z,130.27
2018-02-09T20:26:34.691Z,133.97
2018-02-09T20:29:00.434Z,133.27
2018-02-09T20:31:26.195Z,131.40
2018-02-09T20:33:51.934Z,129.70
2018-02-09T20:36:17.689Z,132.37
2018-02-09T20:38:43.430Z,136.97
2018-02-09T20:41:09.182Z,134.27
2018-02-09T20:43:34.955Z,137.10
2018-02-09T20:46:00.707Z,130.53
2018-02-09T20:48:26.467Z,137.67
2018-02-09T20:50:52.232Z,134.40
2018-02-09T20:53:17.993Z,127.67
2018-02-09T20:55:43.750Z,132.87
2018-02-09T20:58:09.509Z,123.33
2018-02-09T21:00:35.258Z,131.80
2018-02-09T21:03:01.014Z,138.30
2018-02-09T21:05:26.758Z,139.60
2018-02-09T21:07:52.515Z,141.10
2018-02-09T21:10:18.278Z,139.47
2018-02-09T21:12:44.047Z,141.87
2018-02-09T21:15:09.801Z,140.10
2018-02-09T21:17:35.563Z,138.17
2018-02-09T21:20:01.327Z,135.73
2018-02-09T21:22:27.082Z,146.73
2018-02-09T21:24:52.842Z,138.03
2018-02-09T21:27:18.611Z,139.33
2018-02-09T21:29:44.366Z,140.17
2018-02-09T21:32:10.163Z,143.30
2018-02-09T21:34:35.917Z,150.70
2018-02-09T21:37:01.668Z,159.37
2018-02-09T21:39:27.417Z,150.50
2018-02-09T21:41:53.166Z,143.17
2018-02-09T21:44:18.932Z,144.00
2018-02-09T21:46:44.666Z,143.83
2018-02-09T21:49:10.426Z,140.73
2018-02-09T21:51:36.194Z,138.73
2018-02-09T21:54:01.966Z,146.53
2018-02-09T21:56:27.714Z,147.60
2018-02-09T21:58:53.461Z,144.47
2018-02-09T22:01:19.215Z,143.30
2018-02-09T22:03:44.970Z,155.80
2018-02-09T22:06:10.734Z,151.07
2018-02-09T22:08:36.491Z,148.20
2018-02-09T22:11:02.234Z,154.37
2018-02-09T22:13:28.011Z,149.90
2018-02-09T22:15:53.750Z,151.07
2018-02-09T22:18:19.517Z,150.67
2018-02-09T22:20:45.281Z,145.30
2018-02-09T22:23:11.039Z,149.60
2018-02-09T22:25:36.815Z,144.70
2018-02-09T22:28:02.568Z,150.13
2018-02-09T22:30:28.326Z,149.30
2018-02-09T22:32:54.078Z,152.50
2018-02-09T22:35:19.867Z,159.20
2018-02-09T22:37:45.630Z,151.43
2018-02-09T22:40:11.415Z,152.63
2018-02-09T22:42:37.182Z,147.23
2018-02-09T22:45:02.946Z,150.43
2018-02-09T22:47:28.691Z,150.73
2018-02-09T22:49:54.457Z,156.23
2018-02-09T22:52:20.218Z,150.70
2018-02-09T22:54:46.003Z,156.27
2018-02-09T22:57:11.762Z,157.33
2018-02-09T22:59:37.677Z,148.83
2018-02-09T23:02:03.422Z,152.30
2018-02-09T23:04:29.287Z,155.50
2018-02-09T23:06:55.060Z,148.80
2018-02-09T23:09:20.814Z,153.70
2018-02-09T23:11:46.583Z,146.20
2018-02-09T23:14:12.341Z,141.27
2018-02-09T23:16:38.137Z,150.03
2018-02-09T23:19:03.886Z,151.37
2018-02-09T23:21:29.661Z,148.90
2018-02-09T23:23:55.417Z,141.40
2018-02-09T23:26:21.202Z,142.73
2018-02-09T23:28:46.979Z,144.23
2018-02-09T23:31:12.756Z,141.00
2018-02-09T23:33:38.649Z,144.90
2018-02-09T23:36:04.538Z,156.73
2018-02-09T23:38:30.281Z,157.20
2018-02-09T23:40:56.046Z,150.83
2018-02-09T23:43:21.787Z,138.23
2018-02-09T23:45:47.551Z,160.20
2018-02-09T23:48:13.290Z,147.37
2018-02-09T23:50:39.066Z,138.17
2018-02-09T23:53:04.827Z,138.57
2018-02-09T23:55:30.598Z,135.83
2018-02-09T23:57:56.334Z,135.03
